首页
METAR-TAF:

METAR-TAF

机场 :

Muir Army Airfield

Fort Indiantown Gap, 宾夕法尼亚州, 美国

纬度: 40-26N, 经度: 076-34W, 海拔: 149米

当前天气观测

该预报发布于1小时和10分钟前的18:56 UTC
风速8节,风向西转西北
温度 5°C
湿度 60%
气压 997 hPa
能見度: 16.1公里
多云层高于3800英尺
多云层高于13000英尺

METAR: KMUI 161856Z AUTO 30008KT 10SM BKN038 BKN130 05/M02 A2944 RMK AO2 SLP975 T00541024

时间: 15:06 (20:06 UTC)

预报

该预报发布于22小时和51分钟前的21:15 UTC
预报有效从15日的 21点(UTC)到 17日的 01点(UTC)
风速9节,风向
能見度: 4800
多云层高于3000英尺
轻雾
成为
从 16日的 00点(UTC)到 16日的 01点(UTC)
风速6节,风向东转东南
能見度: 3200
阴天层高于700英尺
小雨, 轻雾
成为
从 16日的 09点(UTC)到 16日的 10点(UTC)
风速9节,风向西转西北
能見度: 8000
多云层高于1500英尺
阴天层高于2500英尺
小阵雨, 雪
成为
从 16日的 13点(UTC)到 16日的 14点(UTC)
风速6节,风向西
能见度10公里或以上
多云层高于2500英尺
成为
从 16日的 17点(UTC)到 16日的 18点(UTC)
风速12节,风向西
能見度: 1911
多云层高于5000英尺

TAF: KMUI 152115Z 1521/1701 10009KT 4800 BR BKN030 QNH2979INS BECMG 1600/1601 12006KT 3200 -RA BR OVC007 QNH2959INS BECMG 1609/1610 30009KT 8000 -SHRASN BKN015 OVC025 610159 QNH2955INS BECMG 1613/1614 27006KT 9999 NSW BKN025 QNH2956INS BECMG 1617/1618 28012KT 9999 BKN050 QNH2948INS TX09/1617Z TN00/1611Z LAST NO AMDS AFT 1605 NEXT 1911

超过4000个机场的气象观测和天气预报(METAR&TAF报告)。

可查询的气象台以黄色和红色小点在地图上表示。

将鼠标移到小点上方,可查看气象台名称。

然后点击查看天气观测和预报。

如需切换地图:点击带黑十字的绿色按钮放大地图;点击带横线的绿色按钮缩小地图;或者点击绿色箭头查看邻近地区的地图。


METAR-TAF: